Time;durP1;ratioP1;P1;durP2;ratioP2;P2;SDS_P1;SDS_P2;PMS_P1;PMS_P2;Temp;Humidity;BMP_temperature;BMP_pressure;BME280_temperature;BME280_humidity;BME280_pressure;Samples;Min_cycle;Max_cycle;Signal;HPM_P1;HPM_P2
2021/11/28 00:01:14;;;;;;;7.28;4.88;;;2.80;79.30;;;;;;5042905;28;20398;-69
2021/11/28 00:03:40;;;;;;;16.20;8.30;;;2.80;79.30;;;;;;5041228;28;20033;-69
2021/11/28 00:06:22;;;;;;;10.60;6.13;;;2.80;79.30;;;;;;5044357;28;20034;-69
2021/11/28 00:11:34;;;;;;;11.48;6.28;;;2.80;79.20;;;;;;5040731;28;20044;-68
2021/11/28 00:14:12;;;;;;;16.13;7.95;;;2.80;79.20;;;;;;5047578;28;20029;-69
2021/11/28 00:16:38;;;;;;;18.33;9.10;;;2.80;79.30;;;;;;5038896;28;20033;-68
2021/11/28 00:19:05;;;;;;;8.23;5.60;;;2.70;79.20;;;;;;5038817;28;20025;-69
2021/11/28 00:21:32;;;;;;;9.30;4.85;;;2.70;79.20;;;;;;5038469;28;20029;-69
2021/11/28 00:23:58;;;;;;;6.07;4.40;;;2.70;80.20;;;;;;5043074;28;20130;-68
2021/11/28 00:26:23;;;;;;;4.68;3.72;;;2.70;79.50;;;;;;5045875;28;20029;-68
2021/11/28 00:28:50;;;;;;;7.70;4.82;;;2.60;79.70;;;;;;5040763;28;20124;-69
2021/11/28 00:31:16;;;;;;;7.40;3.80;;;2.60;79.80;;;;;;5042982;28;20040;-67
2021/11/28 00:33:42;;;;;;;6.28;3.90;;;2.60;79.90;;;;;;5042396;28;20036;-69
2021/11/28 00:36:07;;;;;;;6.53;4.40;;;2.60;79.90;;;;;;5037679;28;20032;-69
2021/11/28 00:38:33;;;;;;;6.05;4.07;;;2.70;79.90;;;;;;5042996;28;20094;-67
2021/11/28 00:40:59;;;;;;;8.70;5.10;;;2.70;79.90;;;;;;5044460;28;20397;-69
2021/11/28 00:43:24;;;;;;;10.10;6.28;;;2.70;79.90;;;;;;5045143;28;20037;-69
2021/11/28 00:45:50;;;;;;;13.02;7.05;;;2.70;79.70;;;;;;5042398;28;20041;-68
2021/11/28 00:48:16;;;;;;;12.60;7.65;;;2.80;79.70;;;;;;5042781;28;20033;-69
2021/11/28 00:53:09;;;;;;;11.10;6.93;;;2.70;79.50;;;;;;5043815;28;20033;-67
2021/11/28 00:55:35;;;;;;;12.75;6.88;;;2.80;79.60;;;;;;5046078;28;20098;-69
2021/11/28 00:58:01;;;;;;;10.02;5.90;;;2.80;79.60;;;;;;5041547;28;20033;-68
2021/11/28 01:00:26;;;;;;;10.52;6.10;;;2.80;79.40;;;;;;5042309;28;20029;-68
2021/11/28 01:02:52;;;;;;;10.60;6.30;;;2.80;79.50;;;;;;5036574;28;20041;-68
2021/11/28 01:05:18;;;;;;;11.48;7.05;;;2.80;79.50;;;;;;5035770;28;20175;-68
2021/11/28 01:07:43;;;;;;;11.82;6.82;;;2.80;79.50;;;;;;5039904;28;20296;-68
2021/11/28 01:10:11;;;;;;;11.15;6.43;;;2.80;79.30;;;;;;5035043;28;20040;-68
2021/11/28 01:12:38;;;;;;;9.15;6.32;;;2.80;79.30;;;;;;5037158;28;20029;-69
2021/11/28 01:15:04;;;;;;;11.25;6.70;;;2.70;80.20;;;;;;5038849;28;20025;-67
2021/11/28 01:17:32;;;;;;;8.85;5.85;;;2.70;79.60;;;;;;5039602;28;20108;-68
2021/11/28 01:19:58;;;;;;;9.65;6.35;;;2.70;79.70;;;;;;5039400;28;20087;-68
2021/11/28 01:22:24;;;;;;;10.27;6.05;;;2.70;79.80;;;;;;5040497;28;20045;-69
2021/11/28 01:24:50;;;;;;;10.13;6.22;;;2.70;79.90;;;;;;5043886;28;20037;-68
2021/11/28 01:27:16;;;;;;;10.10;5.80;;;2.80;80.20;;;;;;5041666;28;20624;-68
2021/11/28 01:29:43;;;;;;;10.20;6.10;;;2.80;80.00;;;;;;5042520;28;20083;-69
2021/11/28 01:32:11;;;;;;;9.45;5.60;;;2.80;79.90;;;;;;5037870;28;20044;-69
2021/11/28 01:34:36;;;;;;;9.82;5.53;;;2.80;79.90;;;;;;5042848;28;20033;-68
2021/11/28 01:37:03;;;;;;;8.13;5.70;;;2.80;79.90;;;;;;5036021;28;20078;-66
2021/11/28 01:39:29;;;;;;;11.13;5.70;;;2.80;79.90;;;;;;5043545;28;20071;-68
2021/11/28 01:41:55;;;;;;;10.15;5.63;;;2.80;79.90;;;;;;5040417;28;20427;-68
2021/11/28 01:44:21;;;;;;;9.60;5.47;;;2.90;79.90;;;;;;5041531;28;20067;-68
2021/11/28 01:46:47;;;;;;;7.88;5.45;;;2.90;79.90;;;;;;5037377;28;20049;-68
2021/11/28 01:49:14;;;;;;;9.43;5.28;;;2.90;79.90;;;;;;5040297;28;20186;-68
2021/11/28 01:51:40;;;;;;;9.80;5.82;;;2.90;79.90;;;;;;5037922;28;20037;-68
2021/11/28 01:54:12;;;;;;;9.27;5.88;;;2.90;80.70;;;;;;5036238;28;20539;-68
2021/11/28 01:56:39;;;;;;;9.73;5.43;;;2.90;79.90;;;;;;5040656;28;20447;-68
2021/11/28 01:59:06;;;;;;;9.23;5.97;;;2.90;80.00;;;;;;5039114;28;20052;-68
2021/11/28 02:01:33;;;;;;;9.20;5.43;;;2.90;80.00;;;;;;5035335;28;20041;-67
2021/11/28 02:04:00;;;;;;;8.50;5.57;;;2.90;80.00;;;;;;5034785;28;20130;-68
2021/11/28 02:06:26;;;;;;;7.55;5.15;;;3.00;80.00;;;;;;5041423;28;20599;-66
2021/11/28 02:08:52;;;;;;;7.70;5.82;;;3.00;80.00;;;;;;5042023;28;20116;-68
2021/11/28 02:11:18;;;;;;;8.95;5.80;;;3.00;79.90;;;;;;5036946;28;20056;-68
2021/11/28 02:13:44;;;;;;;9.38;5.88;;;3.00;79.90;;;;;;5036761;28;20042;-68
2021/11/28 02:16:12;;;;;;;8.10;5.68;;;3.00;79.70;;;;;;5043503;28;20033;-68
2021/11/28 02:18:38;;;;;;;7.70;5.63;;;3.00;79.50;;;;;;5039501;28;20114;-68
2021/11/28 02:21:06;;;;;;;8.18;5.20;;;3.00;79.60;;;;;;5043601;28;20060;-68
2021/11/28 02:23:32;;;;;;;7.55;5.25;;;3.00;79.70;;;;;;5040581;28;20040;-68
2021/11/28 02:26:01;;;;;;;8.45;5.72;;;3.00;79.70;;;;;;5037296;28;20401;-68
2021/11/28 02:28:28;;;;;;;9.38;5.90;;;3.00;79.80;;;;;;5039716;28;20037;-67
2021/11/28 02:30:54;;;;;;;8.80;5.50;;;3.10;79.90;;;;;;5040500;28;20570;-68
2021/11/28 02:33:20;;;;;;;8.32;5.85;;;3.00;79.90;;;;;;5036515;28;20044;-68
2021/11/28 02:35:45;;;;;;;8.38;5.72;;;3.10;80.80;;;;;;5033770;28;20033;-68
2021/11/28 02:38:11;;;;;;;9.70;6.22;;;3.10;79.90;;;;;;5041169;28;20064;-69
2021/11/28 02:40:39;;;;;;;10.27;6.30;;;3.10;79.90;;;;;;5039195;28;20685;-68
2021/11/28 02:43:05;;;;;;;8.18;5.68;;;3.10;79.90;;;;;;5035306;28;20041;-68
2021/11/28 02:45:32;;;;;;;8.25;5.35;;;3.10;80.70;;;;;;5042561;28;20029;-68
2021/11/28 02:48:00;;;;;;;8.43;5.47;;;3.10;79.80;;;;;;5040728;28;20092;-68
2021/11/28 02:50:26;;;;;;;6.47;4.93;;;3.10;79.90;;;;;;5039182;28;20036;-68
2021/11/28 02:52:57;;;;;;;8.93;4.63;;;3.10;80.00;;;;;;5037832;28;20621;-69
2021/11/28 02:55:28;;;;;;;7.70;5.32;;;3.10;80.00;;;;;;5034427;28;20053;-68
2021/11/28 02:57:56;;;;;;;7.85;5.10;;;3.10;80.00;;;;;;5040353;28;20047;-67
2021/11/28 03:00:23;;;;;;;9.48;5.20;;;3.20;80.00;;;;;;5044130;28;20124;-68
2021/11/28 03:02:49;;;;;;;8.60;5.28;;;3.20;80.00;;;;;;5045351;28;20784;-67
2021/11/28 03:05:15;;;;;;;10.90;6.60;;;3.10;79.90;;;;;;5038802;28;20040;-68
2021/11/28 03:07:41;;;;;;;11.27;6.20;;;3.10;80.00;;;;;;5043902;28;20037;-68
2021/11/28 03:10:37;;;;;;;11.85;6.55;;;3.10;80.10;;;;;;5046977;28;20033;-68
2021/11/28 03:13:07;;;;;;;10.38;5.97;;;3.10;80.50;;;;;;5045993;28;20029;-69
2021/11/28 03:15:34;;;;;;;10.20;5.80;;;3.10;80.40;;;;;;5046758;28;20547;-69
2021/11/28 03:18:00;;;;;;;7.72;5.13;;;3.10;81.20;;;;;;5047971;28;20124;-67
2021/11/28 03:20:26;;;;;;;7.28;5.00;;;3.20;80.50;;;;;;5045370;28;20521;-68
2021/11/28 03:22:52;;;;;;;6.95;4.93;;;3.10;80.60;;;;;;5043691;28;20049;-68
2021/11/28 03:25:21;;;;;;;8.10;5.32;;;3.10;80.50;;;;;;5041479;28;20508;-68
2021/11/28 03:27:47;;;;;;;6.95;5.10;;;3.20;80.70;;;;;;5042917;28;20033;-68
2021/11/28 03:30:15;;;;;;;5.50;4.38;;;3.20;80.60;;;;;;5043121;28;20033;-69
2021/11/28 03:32:41;;;;;;;6.80;4.82;;;3.20;80.60;;;;;;5043462;28;20033;-68
2021/11/28 03:35:08;;;;;;;9.40;4.85;;;3.20;80.60;;;;;;5038765;28;20036;-68
2021/11/28 03:37:35;;;;;;;9.75;5.28;;;3.20;80.70;;;;;;5040093;28;20047;-68
2021/11/28 03:40:05;;;;;;;6.65;4.47;;;3.20;80.80;;;;;;5040435;28;20052;-68
2021/11/28 03:42:31;;;;;;;5.35;3.78;;;3.20;80.90;;;;;;5042144;28;20798;-68
2021/11/28 03:44:57;;;;;;;5.00;4.13;;;3.20;80.80;;;;;;5041703;28;20049;-66
2021/11/28 03:47:22;;;;;;;6.50;4.40;;;3.20;80.90;;;;;;5043039;28;20029;-69
2021/11/28 03:49:48;;;;;;;6.35;4.70;;;3.20;80.90;;;;;;5043692;28;20063;-68
2021/11/28 03:52:14;;;;;;;9.13;5.13;;;3.30;80.90;;;;;;5038955;28;20041;-68
2021/11/28 03:54:40;;;;;;;7.63;5.35;;;3.30;80.70;;;;;;5042517;28;20029;-68
2021/11/28 03:57:06;;;;;;;8.38;5.22;;;3.30;80.70;;;;;;5038276;28;20605;-67
2021/11/28 03:59:32;;;;;;;9.75;5.88;;;3.30;80.70;;;;;;5040350;28;20652;-68
2021/11/28 04:01:58;;;;;;;9.38;5.50;;;3.40;80.60;;;;;;5042286;28;20037;-67
2021/11/28 04:04:24;;;;;;;7.38;4.53;;;3.40;80.50;;;;;;5040936;28;20135;-68
2021/11/28 04:06:50;;;;;;;7.13;4.75;;;3.40;80.40;;;;;;5041785;28;20111;-68
2021/11/28 04:09:16;;;;;;;8.25;4.93;;;3.40;80.30;;;;;;5042563;28;20092;-68
2021/11/28 04:11:41;;;;;;;5.35;3.97;;;3.30;80.30;;;;;;5036299;28;20045;-67
2021/11/28 04:14:07;;;;;;;6.18;3.83;;;3.30;80.20;;;;;;5036316;28;20052;-66
2021/11/28 04:16:33;;;;;;;5.65;4.07;;;3.30;80.10;;;;;;5040307;28;20033;-68
2021/11/28 04:18:59;;;;;;;7.60;4.03;;;3.40;80.20;;;;;;5039655;28;20033;-68
2021/11/28 04:21:26;;;;;;;5.60;3.50;;;3.30;80.10;;;;;;5039214;28;20041;-68
2021/11/28 04:23:53;;;;;;;5.68;3.58;;;3.30;80.10;;;;;;5043859;28;20033;-68
2021/11/28 04:26:20;;;;;;;5.05;3.30;;;3.30;80.10;;;;;;5034879;28;20131;-68
2021/11/28 04:28:46;;;;;;;5.35;3.33;;;3.30;80.10;;;;;;5041549;28;20403;-68
2021/11/28 04:31:11;;;;;;;3.85;3.40;;;3.30;80.00;;;;;;5040801;28;20116;-68
2021/11/28 04:33:37;;;;;;;6.78;3.33;;;3.30;80.00;;;;;;5041730;28;20535;-69
2021/11/28 04:36:04;;;;;;;4.18;3.20;;;3.30;80.00;;;;;;5037985;28;20037;-68
2021/11/28 04:38:30;;;;;;;5.38;3.63;;;3.30;80.00;;;;;;5040203;28;20041;-68
2021/11/28 04:40:56;;;;;;;5.15;3.30;;;3.30;79.90;;;;;;5038500;28;20404;-66
2021/11/28 04:43:21;;;;;;;5.63;3.70;;;3.30;79.60;;;;;;5044498;28;20124;-69
2021/11/28 04:45:47;;;;;;;4.20;3.40;;;3.30;79.60;;;;;;5038409;28;20041;-68
2021/11/28 04:48:12;;;;;;;7.03;3.40;;;3.30;79.50;;;;;;5043746;28;20040;-69
2021/11/28 04:50:39;;;;;;;5.20;3.63;;;3.20;79.40;;;;;;5039076;28;20025;-68
2021/11/28 04:53:05;;;;;;;5.20;3.50;;;3.20;79.50;;;;;;5041382;28;20581;-68
2021/11/28 04:55:31;;;;;;;4.63;3.30;;;3.20;79.70;;;;;;5042734;28;20028;-68
2021/11/28 04:57:57;;;;;;;3.55;3.25;;;3.20;79.70;;;;;;5037775;28;20124;-68
2021/11/28 05:00:26;;;;;;;5.20;3.47;;;3.20;79.80;;;;;;5039109;28;20116;-68
2021/11/28 05:02:54;;;;;;;3.58;2.90;;;3.20;79.90;;;;;;5038241;28;20044;-68
2021/11/28 05:05:20;;;;;;;5.70;3.70;;;3.20;79.80;;;;;;5041639;28;20029;-68
2021/11/28 05:07:46;;;;;;;5.63;3.72;;;3.20;79.70;;;;;;5036549;28;20043;-68
2021/11/28 05:10:12;;;;;;;5.13;4.28;;;3.20;79.70;;;;;;5037411;28;20032;-68
2021/11/28 05:12:39;;;;;;;7.03;5.32;;;3.20;79.80;;;;;;5032996;28;20033;-68
2021/11/28 05:15:06;;;;;;;7.80;5.25;;;3.30;80.00;;;;;;5041408;28;20415;-68
2021/11/28 05:17:31;;;;;;;7.28;5.55;;;3.30;79.90;;;;;;5043989;28;20124;-68
2021/11/28 05:19:58;;;;;;;11.07;7.18;;;3.30;79.90;;;;;;5036786;28;20111;-67
2021/11/28 05:22:24;;;;;;;9.88;7.03;;;3.30;79.90;;;;;;5040976;28;20042;-68
2021/11/28 05:24:51;;;;;;;9.18;6.72;;;3.30;79.80;;;;;;5043057;28;20025;-68
2021/11/28 05:27:18;;;;;;;9.75;6.72;;;3.30;79.90;;;;;;5037103;28;20373;-68
2021/11/28 05:29:44;;;;;;;7.53;6.07;;;3.30;79.90;;;;;;5043301;28;20040;-69
2021/11/28 05:32:10;;;;;;;8.30;6.35;;;3.30;80.00;;;;;;5043323;28;20041;-68
2021/11/28 05:34:36;;;;;;;7.07;4.22;;;3.30;80.20;;;;;;5043954;28;20025;-68
2021/11/28 05:37:01;;;;;;;7.93;6.28;;;3.30;80.20;;;;;;5041124;28;20125;-68
2021/11/28 05:39:27;;;;;;;6.63;4.20;;;3.30;80.20;;;;;;5037597;28;20033;-68
2021/11/28 05:41:53;;;;;;;3.83;3.45;;;3.30;80.30;;;;;;5039220;28;20052;-68
2021/11/28 05:44:18;;;;;;;3.85;3.35;;;3.30;80.30;;;;;;5041366;28;20057;-69
2021/11/28 05:46:44;;;;;;;4.65;3.47;;;3.40;80.40;;;;;;5037169;28;20515;-68
2021/11/28 05:49:10;;;;;;;4.10;3.22;;;3.30;80.40;;;;;;5040911;28;20454;-68
2021/11/28 05:51:35;;;;;;;5.20;3.55;;;3.30;80.50;;;;;;5042225;28;20171;-69
2021/11/28 05:54:01;;;;;;;6.85;5.47;;;3.30;80.60;;;;;;5039866;28;20063;-68
2021/11/28 05:56:30;;;;;;;6.93;5.68;;;3.30;80.70;;;;;;5044003;28;20037;-68
2021/11/28 05:58:57;;;;;;;4.85;3.92;;;3.40;80.90;;;;;;5043451;28;20036;-68
2021/11/28 06:01:23;;;;;;;6.47;5.88;;;3.30;80.90;;;;;;5044818;28;20037;-68
2021/11/28 06:03:48;;;;;;;5.07;4.00;;;3.30;80.90;;;;;;5046364;28;20068;-68
2021/11/28 06:06:14;;;;;;;4.05;3.65;;;3.30;80.90;;;;;;5045026;28;20068;-68
2021/11/28 06:08:41;;;;;;;6.90;4.25;;;3.30;81.00;;;;;;5043294;28;20474;-68
2021/11/28 06:11:06;;;;;;;4.43;3.80;;;3.30;81.00;;;;;;5040655;28;20029;-68
2021/11/28 06:13:32;;;;;;;4.07;3.67;;;3.30;81.00;;;;;;5043267;28;20098;-68
2021/11/28 06:15:58;;;;;;;4.30;3.70;;;3.30;81.80;;;;;;5043842;28;20040;-68
2021/11/28 06:18:23;;;;;;;4.38;3.80;;;3.30;81.00;;;;;;5045378;28;20041;-68
2021/11/28 06:20:49;;;;;;;4.28;3.80;;;3.30;81.10;;;;;;5044500;28;20659;-68
2021/11/28 06:23:15;;;;;;;5.03;3.88;;;3.30;81.20;;;;;;5045756;28;20514;-68
2021/11/28 06:25:40;;;;;;;3.83;3.53;;;3.30;81.20;;;;;;5045184;28;20396;-68
2021/11/28 06:28:06;;;;;;;8.48;5.15;;;3.30;81.30;;;;;;5043472;28;20055;-68
2021/11/28 06:30:32;;;;;;;7.93;6.57;;;3.30;81.40;;;;;;5043606;28;20574;-68
2021/11/28 06:32:59;;;;;;;5.72;5.13;;;3.30;81.40;;;;;;5045081;28;20040;-68
2021/11/28 06:35:25;;;;;;;5.65;4.18;;;3.30;81.60;;;;;;5047214;28;20037;-67
2021/11/28 06:37:50;;;;;;;5.32;4.60;;;3.30;81.70;;;;;;5048731;28;20041;-68
2021/11/28 06:40:16;;;;;;;7.05;5.95;;;3.30;81.70;;;;;;5049331;28;20045;-68
2021/11/28 06:42:42;;;;;;;7.97;5.15;;;3.40;82.60;;;;;;5045246;28;20044;-68
2021/11/28 06:45:08;;;;;;;9.80;5.47;;;3.40;81.80;;;;;;5046903;28;20025;-68
2021/11/28 06:47:34;;;;;;;5.15;4.65;;;3.40;81.80;;;;;;5047494;28;20029;-68
2021/11/28 06:49:59;;;;;;;8.43;5.20;;;3.40;81.80;;;;;;5047781;28;20036;-69
2021/11/28 06:52:25;;;;;;;5.57;4.70;;;3.50;81.80;;;;;;5048907;28;20029;-68
2021/11/28 06:54:51;;;;;;;6.38;5.32;;;3.50;81.80;;;;;;5045669;28;20031;-68
2021/11/28 06:57:16;;;;;;;6.70;5.38;;;3.50;81.70;;;;;;5047080;28;20048;-69
2021/11/28 06:59:42;;;;;;;7.13;5.32;;;3.60;81.80;;;;;;5047380;28;20124;-68
2021/11/28 07:02:09;;;;;;;6.65;4.80;;;3.60;81.60;;;;;;5044458;28;20044;-68
2021/11/28 07:04:34;;;;;;;5.57;4.55;;;3.60;81.80;;;;;;5047070;28;20041;-69
2021/11/28 07:07:00;;;;;;;6.85;5.00;;;3.60;81.80;;;;;;5045847;28;20025;-68
2021/11/28 07:09:27;;;;;;;6.80;5.45;;;3.60;81.80;;;;;;5046844;28;20040;-68
2021/11/28 07:11:53;;;;;;;12.43;8.13;;;3.60;81.80;;;;;;5040242;28;20037;-68
2021/11/28 07:14:18;;;;;;;9.98;6.53;;;3.70;81.70;;;;;;5041026;28;20029;-67
2021/11/28 07:16:44;;;;;;;9.50;5.93;;;3.70;81.60;;;;;;5040488;28;20052;-68
2021/11/28 07:19:10;;;;;;;6.32;5.63;;;3.70;81.60;;;;;;5041629;28;20029;-68
2021/11/28 07:21:36;;;;;;;7.25;5.63;;;3.70;81.60;;;;;;5039845;28;20028;-68
2021/11/28 07:24:01;;;;;;;7.97;6.05;;;3.70;81.50;;;;;;5041300;28;20408;-68
2021/11/28 07:26:27;;;;;;;7.57;5.60;;;3.70;81.40;;;;;;5038243;28;20033;-68
2021/11/28 07:28:54;;;;;;;6.05;5.35;;;3.80;81.40;;;;;;5039495;28;20050;-68
2021/11/28 07:31:20;;;;;;;6.13;5.28;;;3.80;81.50;;;;;;5040421;28;20143;-68
2021/11/28 07:33:46;;;;;;;7.22;5.40;;;3.80;81.50;;;;;;5038986;28;20040;-67
2021/11/28 07:36:12;;;;;;;6.60;5.10;;;3.80;81.40;;;;;;5042541;28;20045;-68
2021/11/28 07:38:38;;;;;;;6.32;5.13;;;3.80;81.40;;;;;;5042753;28;20060;-69
2021/11/28 07:41:04;;;;;;;6.15;5.32;;;3.80;81.30;;;;;;5039171;28;20041;-68
2021/11/28 07:43:30;;;;;;;8.73;6.10;;;3.90;81.30;;;;;;5043601;28;20519;-69
2021/11/28 07:45:56;;;;;;;8.60;7.72;;;3.90;81.20;;;;;;5037992;28;20040;-68
2021/11/28 07:48:22;;;;;;;9.88;7.65;;;3.90;81.20;;;;;;5039196;28;20047;-68
2021/11/28 07:50:49;;;;;;;9.43;7.13;;;3.90;81.20;;;;;;5036333;28;20136;-68
2021/11/28 07:53:15;;;;;;;11.55;8.00;;;3.90;81.10;;;;;;5040346;28;20120;-69
2021/11/28 07:55:41;;;;;;;10.95;8.20;;;3.90;81.20;;;;;;5041039;28;20151;-69
2021/11/28 07:58:07;;;;;;;18.88;11.80;;;4.00;81.20;;;;;;5037123;28;20060;-68
2021/11/28 08:00:34;;;;;;;16.08;10.52;;;4.00;81.30;;;;;;5032537;28;20033;-67
2021/11/28 08:03:00;;;;;;;11.25;8.88;;;4.00;81.20;;;;;;5036989;28;20116;-66
2021/11/28 08:05:27;;;;;;;14.05;10.07;;;4.00;81.20;;;;;;5042431;28;20036;-66
2021/11/28 08:07:54;;;;;;;11.68;9.13;;;4.00;81.10;;;;;;5042837;28;20041;-68
2021/11/28 08:10:19;;;;;;;11.10;6.95;;;4.10;81.10;;;;;;5041810;28;20040;-67
2021/11/28 08:12:45;;;;;;;6.35;5.68;;;4.10;81.10;;;;;;5020326;28;20531;-69
2021/11/28 08:15:16;;;;;;;7.50;5.75;;;4.10;80.90;;;;;;5037479;28;20061;-66
2021/11/28 08:17:42;;;;;;;5.97;5.32;;;4.10;80.70;;;;;;5038813;28;20029;-66
2021/11/28 08:20:09;;;;;;;8.90;6.38;;;4.10;80.70;;;;;;5043021;28;20060;-68
2021/11/28 08:22:36;;;;;;;7.70;5.82;;;4.10;80.70;;;;;;5038957;28;20037;-68
2021/11/28 08:25:01;;;;;;;9.38;6.63;;;4.10;80.70;;;;;;5033814;28;20061;-68
2021/11/28 08:27:27;;;;;;;9.02;7.07;;;4.10;80.80;;;;;;5037532;28;20459;-68
2021/11/28 08:29:54;;;;;;;9.27;8.27;;;4.00;80.90;;;;;;5037727;28;20029;-66
2021/11/28 08:32:20;;;;;;;8.55;6.57;;;4.00;81.00;;;;;;5042240;28;20047;-69
2021/11/28 08:34:45;;;;;;;9.40;6.85;;;4.00;81.20;;;;;;5042686;28;20760;-68
2021/11/28 08:37:11;;;;;;;10.60;7.72;;;4.00;81.30;;;;;;5040873;28;20029;-68
2021/11/28 08:39:37;;;;;;;8.75;6.47;;;4.00;81.30;;;;;;5044324;28;20029;-69
2021/11/28 08:42:07;;;;;;;11.20;8.05;;;4.00;81.40;;;;;;5040123;28;20064;-66
2021/11/28 08:44:33;;;;;;;9.77;6.93;;;4.00;81.40;;;;;;5040603;28;20071;-67
2021/11/28 08:46:59;;;;;;;10.15;7.10;;;4.10;81.50;;;;;;5035882;28;20087;-68
2021/11/28 08:49:25;;;;;;;13.43;8.13;;;4.10;81.60;;;;;;5041353;28;20541;-68
2021/11/28 08:51:50;;;;;;;13.07;7.82;;;4.10;81.60;;;;;;5033907;28;20037;-68
2021/11/28 08:54:16;;;;;;;10.07;7.07;;;4.10;81.60;;;;;;5036048;28;20046;-68
2021/11/28 08:56:43;;;;;;;10.10;7.70;;;4.20;81.60;;;;;;5037306;28;20083;-68
2021/11/28 08:59:09;;;;;;;11.82;8.32;;;4.20;81.60;;;;;;5036570;28;20523;-66
2021/11/28 09:01:36;;;;;;;13.13;10.18;;;4.20;81.60;;;;;;5035281;28;20102;-68
2021/11/28 09:04:03;;;;;;;15.85;9.68;;;4.30;81.70;;;;;;5037832;28;20037;-68
2021/11/28 09:06:29;;;;;;;16.00;10.52;;;4.30;81.60;;;;;;5038955;28;20500;-68
2021/11/28 09:08:55;;;;;;;10.75;8.40;;;4.40;81.60;;;;;;5035345;28;20087;-68
2021/11/28 09:11:20;;;;;;;11.88;8.48;;;4.40;81.60;;;;;;5032541;28;20045;-68
2021/11/28 09:13:46;;;;;;;10.45;8.23;;;4.40;81.40;;;;;;5043226;28;20037;-69
2021/11/28 09:16:11;;;;;;;10.18;7.85;;;4.50;81.30;;;;;;5038680;28;20025;-68
2021/11/28 09:18:45;;;;;;;10.57;7.43;;;4.50;81.20;;;;;;5041264;28;20047;-68
2021/11/28 09:21:15;;;;;;;10.48;7.13;;;4.50;81.90;;;;;;5040311;28;20397;-67
2021/11/28 09:26:25;;;;;;;10.15;7.95;;;4.60;81.00;;;;;;5038092;28;20052;-68
2021/11/28 09:28:51;;;;;;;8.68;6.55;;;4.60;80.90;;;;;;5041566;28;20814;-68
2021/11/28 09:31:17;;;;;;;9.70;6.63;;;4.60;80.80;;;;;;5041599;28;20030;-67
2021/11/28 09:33:43;;;;;;;7.93;6.53;;;4.60;80.70;;;;;;5037777;28;20446;-68
2021/11/28 09:36:09;;;;;;;9.65;6.93;;;4.70;80.70;;;;;;5040339;28;20032;-68
2021/11/28 09:38:35;;;;;;;8.45;6.68;;;4.70;80.60;;;;;;5039324;28;20041;-67
2021/11/28 09:41:06;;;;;;;12.05;7.80;;;4.60;80.60;;;;;;5038662;28;20052;-68
2021/11/28 09:43:34;;;;;;;8.63;7.05;;;4.60;80.70;;;;;;5038402;28;20045;-68
2021/11/28 09:46:03;;;;;;;9.77;6.82;;;4.60;80.60;;;;;;5036681;28;20041;-67
2021/11/28 09:48:29;;;;;;;12.60;7.95;;;4.60;80.70;;;;;;5037747;28;20275;-67
2021/11/28 09:50:55;;;;;;;12.45;8.70;;;4.70;80.70;;;;;;5039956;28;20397;-67
2021/11/28 09:53:22;;;;;;;10.00;7.07;;;4.60;80.60;;;;;;5035748;28;20040;-67
2021/11/28 09:55:49;;;;;;;19.52;10.68;;;4.70;80.60;;;;;;5038506;28;20112;-66
2021/11/28 09:58:17;;;;;;;15.73;11.13;;;4.60;80.50;;;;;;5037732;28;20037;-67
2021/11/28 10:00:42;;;;;;;11.98;9.05;;;4.60;80.60;;;;;;5035224;28;20037;-67
2021/11/28 10:03:08;;;;;;;12.85;8.00;;;4.60;80.60;;;;;;5041034;28;20424;-66
2021/11/28 10:05:34;;;;;;;11.43;7.88;;;4.70;80.60;;;;;;5041742;28;20355;-67
2021/11/28 10:08:00;;;;;;;11.65;7.60;;;4.70;80.50;;;;;;5042519;28;20033;-69
2021/11/28 10:10:26;;;;;;;11.85;7.35;;;4.70;80.30;;;;;;5038283;28;20080;-66
2021/11/28 10:12:53;;;;;;;12.65;8.93;;;4.70;80.20;;;;;;5036866;28;20037;-66
2021/11/28 10:15:25;;;;;;;8.52;6.50;;;4.70;80.00;;;;;;5041304;28;20029;-66
2021/11/28 10:17:51;;;;;;;9.30;7.03;;;4.70;80.00;;;;;;5038987;28;20041;-66
2021/11/28 10:20:20;;;;;;;12.98;8.68;;;4.70;80.00;;;;;;5045387;28;20095;-66
2021/11/28 10:22:46;;;;;;;9.70;7.70;;;4.70;80.10;;;;;;5043903;28;20036;-66
2021/11/28 10:25:21;;;;;;;16.02;11.77;;;4.70;80.00;;;;;;5043814;28;20110;-66
2021/11/28 10:27:48;;;;;;;;;;;4.80;80.00;;;;;;5045237;28;20112;-68
2021/11/28 10:30:18;;;;;;;11.63;8.50;;;4.80;79.90;;;;;;5043348;28;19912;-65
2021/11/28 10:32:49;;;;;;;18.40;9.70;;;4.80;79.70;;;;;;5045457;28;20036;-67
2021/11/28 10:35:16;;;;;;;13.90;8.85;;;4.90;79.50;;;;;;5041931;28;20156;-66
2021/11/28 10:37:44;;;;;;;16.02;9.77;;;4.90;79.50;;;;;;5042256;28;20108;-67
2021/11/28 10:40:12;;;;;;;13.43;9.75;;;4.90;79.40;;;;;;5042619;28;20056;-67
2021/11/28 10:42:38;;;;;;;13.45;9.52;;;4.90;79.40;;;;;;5043836;28;20025;-67
2021/11/28 10:45:11;;;;;;;25.73;19.58;;;4.90;79.30;;;;;;5044041;28;20046;-67
2021/11/28 10:47:55;;;;;;;14.98;11.35;;;5.00;79.20;;;;;;5043243;28;20545;-67
2021/11/28 10:50:29;;;;;;;10.93;8.10;;;5.00;78.70;;;;;;5043868;28;20029;-67
2021/11/28 10:53:10;;;;;;;13.73;8.75;;;5.00;78.80;;;;;;5045937;28;20116;-67
2021/11/28 10:55:42;;;;;;;13.60;9.02;;;5.00;78.30;;;;;;5040467;28;20033;-67
2021/11/28 10:58:14;;;;;;;12.82;8.15;;;5.00;78.40;;;;;;5036574;28;20041;-67
2021/11/28 11:00:46;;;;;;;9.75;7.13;;;5.00;78.00;;;;;;5043717;28;20029;-66
2021/11/28 11:03:47;;;;;;;9.00;7.47;;;5.10;77.90;;;;;;5044013;28;20033;-67
2021/11/28 11:06:24;;;;;;;8.30;6.07;;;5.00;77.50;;;;;;5043659;28;20063;-67
2021/11/28 11:08:54;;;;;;;9.63;6.00;;;5.00;77.70;;;;;;5045828;28;20499;-67
2021/11/28 11:11:21;;;;;;;9.10;7.00;;;5.00;77.60;;;;;;5041694;28;20524;-67
2021/11/28 11:13:57;;;;;;;10.43;7.10;;;5.00;77.70;;;;;;5044081;28;20056;-67
2021/11/28 11:16:41;;;;;;;8.00;5.57;;;5.10;77.40;;;;;;5044091;28;20045;-68
2021/11/28 11:19:28;;;;;;;8.93;5.30;;;5.10;77.30;;;;;;5046808;28;20381;-68
2021/11/28 11:22:06;;;;;;;9.30;5.35;;;5.10;77.10;;;;;;5046458;28;20044;-67
2021/11/28 11:24:34;;;;;;;6.57;5.05;;;5.10;77.20;;;;;;5044987;28;20036;-68
2021/11/28 11:27:10;;;;;;;7.78;5.18;;;5.10;77.30;;;;;;5048214;28;20029;-66
2021/11/28 11:29:36;;;;;;;9.77;5.07;;;5.00;77.20;;;;;;5048439;28;20025;-67
2021/11/28 11:32:07;;;;;;;9.55;6.45;;;5.00;77.30;;;;;;5043395;28;20395;-67
2021/11/28 11:34:33;;;;;;;13.23;7.35;;;5.10;77.10;;;;;;5047621;28;20075;-67
2021/11/28 11:37:02;;;;;;;8.93;6.07;;;5.10;76.80;;;;;;5043766;28;20033;-67
2021/11/28 11:39:31;;;;;;;9.18;5.70;;;5.10;76.70;;;;;;5044054;28;20028;-65
2021/11/28 11:41:56;;;;;;;9.98;5.40;;;5.10;76.40;;;;;;5038262;28;20459;-66
2021/11/28 11:44:27;;;;;;;7.40;4.95;;;5.20;76.60;;;;;;5045851;28;20127;-67
2021/11/28 11:46:54;;;;;;;7.55;5.13;;;5.20;76.70;;;;;;5046670;28;20504;-67
2021/11/28 11:49:20;;;;;;;10.95;5.88;;;5.20;76.80;;;;;;5048224;28;20060;-68
2021/11/28 11:51:47;;;;;;;7.43;5.25;;;5.20;76.80;;;;;;5047800;28;20558;-67
2021/11/28 11:54:28;;;;;;;7.47;5.15;;;5.20;76.70;;;;;;5040037;28;20048;-67
2021/11/28 11:57:03;;;;;;;5.88;4.78;;;5.30;76.20;;;;;;5044956;28;20448;-67
2021/11/28 11:59:50;;;;;;;6.40;4.38;;;5.30;76.30;;;;;;5051395;28;20531;-67
2021/11/28 12:02:35;;;;;;;6.57;4.88;;;5.40;75.70;;;;;;5048325;28;20033;-67
2021/11/28 12:05:21;;;;;;;6.90;4.97;;;5.40;75.70;;;;;;5049233;28;20075;-67
2021/11/28 12:07:48;;;;;;;7.18;5.32;;;5.40;76.10;;;;;;5046127;28;20029;-67
2021/11/28 12:10:39;;;;;;;6.35;5.07;;;5.40;76.40;;;;;;5047026;28;20037;-68
2021/11/28 12:13:24;;;;;;;8.95;5.78;;;5.50;75.80;;;;;;5044539;28;20717;-67
2021/11/28 12:15:51;;;;;;;8.73;5.60;;;5.50;75.30;;;;;;5046663;28;20443;-68
2021/11/28 12:18:34;;;;;;;9.48;6.15;;;5.50;75.90;;;;;;5048500;28;20084;-67
2021/11/28 12:21:07;;;;;;;7.75;5.47;;;5.50;74.60;;;;;;5046503;28;20390;-68
2021/11/28 12:23:54;;;;;;;6.18;5.35;;;5.60;75.10;;;;;;5047173;28;20045;-68
2021/11/28 12:26:36;;;;;;;7.90;6.03;;;5.60;74.60;;;;;;5046282;28;20055;-68
2021/11/28 12:29:10;;;;;;;6.78;4.75;;;5.50;75.20;;;;;;5048197;28;20108;-67
2021/11/28 12:31:41;;;;;;;6.57;4.32;;;5.60;74.30;;;;;;5046116;28;20029;-67
2021/11/28 12:34:09;;;;;;;5.72;4.38;;;5.60;74.30;;;;;;5036958;28;20071;-67
2021/11/28 12:36:35;;;;;;;7.38;4.88;;;5.60;74.30;;;;;;5044703;28;20035;-67
2021/11/28 12:39:02;;;;;;;9.57;5.20;;;5.60;74.50;;;;;;5047920;28;20570;-67
2021/11/28 12:42:05;;;;;;;10.90;5.93;;;5.60;74.30;;;;;;5046860;28;20041;-67
2021/11/28 12:44:49;;;;;;;6.78;4.65;;;5.60;73.50;;;;;;5032920;28;20044;-67
2021/11/28 12:47:15;;;;;;;12.25;6.07;;;5.60;74.20;;;;;;5038445;28;20521;-68
2021/11/28 12:50:02;;;;;;;8.70;5.40;;;5.60;74.00;;;;;;5042391;28;20025;-67
2021/11/28 12:52:44;;;;;;;8.00;5.15;;;5.70;74.50;;;;;;5045812;28;20044;-68
2021/11/28 12:55:09;;;;;;;9.95;5.10;;;5.60;74.30;;;;;;5046683;28;20033;-68
2021/11/28 12:57:43;;;;;;;7.50;4.40;;;5.70;74.60;;;;;;5042995;28;20396;-67
2021/11/28 13:00:27;;;;;;;10.07;5.82;;;5.70;74.10;;;;;;5043493;28;20032;-68
2021/11/28 13:03:20;;;;;;;5.88;4.30;;;5.70;73.80;;;;;;5046210;28;20033;-67
2021/11/28 13:05:48;;;;;;;14.13;6.78;;;5.80;73.40;;;;;;5042230;28;20560;-68